sensor_id;sensor_type;location;lat;lon;timestamp;P1;durP1;ratioP1;P2;durP2;ratioP2
10715;SDS011;5409;42.620;23.316;2023-05-07T00:01:36;7.75;;;4.25;;
10715;SDS011;5409;42.620;23.316;2023-05-07T00:04:02;6.28;;;4.40;;
10715;SDS011;5409;42.620;23.316;2023-05-07T00:06:29;5.13;;;4.30;;
10715;SDS011;5409;42.620;23.316;2023-05-07T00:08:58;6.80;;;4.03;;
10715;SDS011;5409;42.620;23.316;2023-05-07T00:11:26;4.95;;;4.47;;
10715;SDS011;5409;42.620;23.316;2023-05-07T00:13:53;4.97;;;4.13;;
10715;SDS011;5409;42.620;23.316;2023-05-07T00:16:21;11.02;;;4.25;;
10715;SDS011;5409;42.620;23.316;2023-05-07T00:18:48;4.07;;;3.45;;
10715;SDS011;5409;42.620;23.316;2023-05-07T00:21:15;5.72;;;4.22;;
10715;SDS011;5409;42.620;23.316;2023-05-07T00:23:42;4.53;;;3.90;;
10715;SDS011;5409;42.620;23.316;2023-05-07T00:26:08;5.65;;;3.85;;
10715;SDS011;5409;42.620;23.316;2023-05-07T00:28:35;5.32;;;4.05;;
10715;SDS011;5409;42.620;23.316;2023-05-07T00:31:02;5.60;;;3.70;;
10715;SDS011;5409;42.620;23.316;2023-05-07T00:33:30;4.90;;;4.00;;
10715;SDS011;5409;42.620;23.316;2023-05-07T00:35:57;9.65;;;4.60;;
10715;SDS011;5409;42.620;23.316;2023-05-07T00:38:26;5.05;;;4.05;;
10715;SDS011;5409;42.620;23.316;2023-05-07T00:40:52;4.28;;;3.88;;
10715;SDS011;5409;42.620;23.316;2023-05-07T00:43:19;4.35;;;3.95;;
10715;SDS011;5409;42.620;23.316;2023-05-07T00:45:46;6.50;;;3.83;;
10715;SDS011;5409;42.620;23.316;2023-05-07T00:48:12;4.68;;;3.92;;
10715;SDS011;5409;42.620;23.316;2023-05-07T00:50:43;6.47;;;4.37;;
10715;SDS011;5409;42.620;23.316;2023-05-07T00:53:12;4.55;;;3.90;;
10715;SDS011;5409;42.620;23.316;2023-05-07T00:55:39;4.47;;;4.07;;
10715;SDS011;5409;42.620;23.316;2023-05-07T00:58:06;6.10;;;3.83;;
10715;SDS011;5409;42.620;23.316;2023-05-07T01:00:33;9.60;;;4.07;;
10715;SDS011;5409;42.620;23.316;2023-05-07T01:03:00;5.38;;;4.00;;
10715;SDS011;5409;42.620;23.316;2023-05-07T01:05:27;5.03;;;3.95;;
10715;SDS011;5409;42.620;23.316;2023-05-07T01:07:56;4.57;;;3.90;;
10715;SDS011;5409;42.620;23.316;2023-05-07T01:10:24;4.22;;;3.83;;
10715;SDS011;5409;42.620;23.316;2023-05-07T01:12:51;7.15;;;4.07;;
10715;SDS011;5409;42.620;23.316;2023-05-07T01:15:19;5.55;;;4.13;;
10715;SDS011;5409;42.620;23.316;2023-05-07T01:17:46;5.72;;;4.20;;
10715;SDS011;5409;42.620;23.316;2023-05-07T01:20:12;4.20;;;3.80;;
10715;SDS011;5409;42.620;23.316;2023-05-07T01:22:42;6.07;;;4.68;;
10715;SDS011;5409;42.620;23.316;2023-05-07T01:25:09;4.50;;;4.10;;
10715;SDS011;5409;42.620;23.316;2023-05-07T01:27:36;5.28;;;4.20;;
10715;SDS011;5409;42.620;23.316;2023-05-07T01:30:03;5.13;;;4.35;;
10715;SDS011;5409;42.620;23.316;2023-05-07T01:32:32;5.15;;;4.55;;
10715;SDS011;5409;42.620;23.316;2023-05-07T01:35:02;4.97;;;4.47;;
10715;SDS011;5409;42.620;23.316;2023-05-07T01:37:31;5.15;;;4.45;;
10715;SDS011;5409;42.620;23.316;2023-05-07T01:40:00;5.60;;;4.97;;
10715;SDS011;5409;42.620;23.316;2023-05-07T01:42:27;5.55;;;4.55;;
10715;SDS011;5409;42.620;23.316;2023-05-07T01:44:55;7.30;;;4.63;;
10715;SDS011;5409;42.620;23.316;2023-05-07T01:47:22;7.35;;;4.40;;
10715;SDS011;5409;42.620;23.316;2023-05-07T01:49:49;5.43;;;4.50;;
10715;SDS011;5409;42.620;23.316;2023-05-07T01:52:16;4.75;;;4.35;;
10715;SDS011;5409;42.620;23.316;2023-05-07T01:54:43;5.38;;;4.13;;
10715;SDS011;5409;42.620;23.316;2023-05-07T01:57:11;5.03;;;4.30;;
10715;SDS011;5409;42.620;23.316;2023-05-07T01:59:38;4.43;;;4.03;;
10715;SDS011;5409;42.620;23.316;2023-05-07T02:02:05;8.40;;;4.57;;
10715;SDS011;5409;42.620;23.316;2023-05-07T02:04:32;5.95;;;4.78;;
10715;SDS011;5409;42.620;23.316;2023-05-07T02:06:58;5.60;;;4.53;;
10715;SDS011;5409;42.620;23.316;2023-05-07T02:09:25;4.85;;;4.35;;
10715;SDS011;5409;42.620;23.316;2023-05-07T02:11:52;8.77;;;4.97;;
10715;SDS011;5409;42.620;23.316;2023-05-07T02:14:20;4.65;;;4.22;;
10715;SDS011;5409;42.620;23.316;2023-05-07T02:16:47;9.80;;;4.90;;
10715;SDS011;5409;42.620;23.316;2023-05-07T02:19:13;7.60;;;4.50;;
10715;SDS011;5409;42.620;23.316;2023-05-07T02:21:40;5.55;;;4.35;;
10715;SDS011;5409;42.620;23.316;2023-05-07T02:24:07;4.93;;;4.00;;
10715;SDS011;5409;42.620;23.316;2023-05-07T02:26:34;5.90;;;4.32;;
10715;SDS011;5409;42.620;23.316;2023-05-07T02:29:01;6.53;;;4.40;;
10715;SDS011;5409;42.620;23.316;2023-05-07T02:31:29;5.22;;;4.30;;
10715;SDS011;5409;42.620;23.316;2023-05-07T02:33:56;8.57;;;4.65;;
10715;SDS011;5409;42.620;23.316;2023-05-07T02:36:22;4.57;;;4.07;;
10715;SDS011;5409;42.620;23.316;2023-05-07T02:38:49;7.88;;;4.88;;
10715;SDS011;5409;42.620;23.316;2023-05-07T02:41:16;4.43;;;4.03;;
10715;SDS011;5409;42.620;23.316;2023-05-07T02:43:43;5.90;;;4.53;;
10715;SDS011;5409;42.620;23.316;2023-05-07T02:46:09;4.40;;;4.00;;
10715;SDS011;5409;42.620;23.316;2023-05-07T02:48:37;5.22;;;4.72;;
10715;SDS011;5409;42.620;23.316;2023-05-07T02:51:04;5.38;;;4.20;;
10715;SDS011;5409;42.620;23.316;2023-05-07T02:53:31;5.75;;;4.35;;
10715;SDS011;5409;42.620;23.316;2023-05-07T02:55:59;5.10;;;4.30;;
10715;SDS011;5409;42.620;23.316;2023-05-07T02:58:26;6.25;;;4.35;;
10715;SDS011;5409;42.620;23.316;2023-05-07T03:00:53;6.30;;;4.97;;
10715;SDS011;5409;42.620;23.316;2023-05-07T03:03:20;5.45;;;4.40;;
10715;SDS011;5409;42.620;23.316;2023-05-07T03:05:48;6.03;;;4.68;;
10715;SDS011;5409;42.620;23.316;2023-05-07T03:08:15;5.28;;;4.45;;
10715;SDS011;5409;42.620;23.316;2023-05-07T03:10:42;5.80;;;4.57;;
10715;SDS011;5409;42.620;23.316;2023-05-07T03:13:09;7.03;;;5.18;;
10715;SDS011;5409;42.620;23.316;2023-05-07T03:15:35;7.75;;;5.32;;
10715;SDS011;5409;42.620;23.316;2023-05-07T03:18:02;6.22;;;5.63;;
10715;SDS011;5409;42.620;23.316;2023-05-07T03:20:30;5.55;;;4.60;;
10715;SDS011;5409;42.620;23.316;2023-05-07T03:22:59;4.88;;;4.35;;
10715;SDS011;5409;42.620;23.316;2023-05-07T03:25:25;6.32;;;4.43;;
10715;SDS011;5409;42.620;23.316;2023-05-07T03:27:55;4.75;;;4.35;;
10715;SDS011;5409;42.620;23.316;2023-05-07T03:30:21;6.00;;;4.97;;
10715;SDS011;5409;42.620;23.316;2023-05-07T03:32:48;5.35;;;4.82;;
10715;SDS011;5409;42.620;23.316;2023-05-07T03:35:15;6.95;;;4.88;;
10715;SDS011;5409;42.620;23.316;2023-05-07T03:37:42;6.90;;;5.78;;
10715;SDS011;5409;42.620;23.316;2023-05-07T03:40:11;5.25;;;4.75;;
10715;SDS011;5409;42.620;23.316;2023-05-07T03:42:38;5.57;;;4.75;;
10715;SDS011;5409;42.620;23.316;2023-05-07T03:45:05;9.10;;;5.40;;
10715;SDS011;5409;42.620;23.316;2023-05-07T03:47:32;5.40;;;4.72;;
10715;SDS011;5409;42.620;23.316;2023-05-07T03:49:59;7.60;;;5.40;;
10715;SDS011;5409;42.620;23.316;2023-05-07T03:52:26;7.05;;;4.80;;
10715;SDS011;5409;42.620;23.316;2023-05-07T03:54:52;5.05;;;4.35;;
10715;SDS011;5409;42.620;23.316;2023-05-07T03:57:21;5.53;;;4.78;;
10715;SDS011;5409;42.620;23.316;2023-05-07T03:59:47;6.78;;;5.50;;
10715;SDS011;5409;42.620;23.316;2023-05-07T04:02:14;6.35;;;4.85;;
10715;SDS011;5409;42.620;23.316;2023-05-07T04:04:41;5.30;;;4.80;;
10715;SDS011;5409;42.620;23.316;2023-05-07T04:07:08;6.03;;;5.43;;
10715;SDS011;5409;42.620;23.316;2023-05-07T04:09:35;6.20;;;5.60;;
10715;SDS011;5409;42.620;23.316;2023-05-07T04:12:01;8.57;;;6.43;;
10715;SDS011;5409;42.620;23.316;2023-05-07T04:14:30;7.07;;;6.00;;
10715;SDS011;5409;42.620;23.316;2023-05-07T04:16:57;8.23;;;7.07;;
10715;SDS011;5409;42.620;23.316;2023-05-07T04:19:24;7.70;;;6.57;;
10715;SDS011;5409;42.620;23.316;2023-05-07T04:21:51;8.52;;;7.43;;
10715;SDS011;5409;42.620;23.316;2023-05-07T04:24:18;12.57;;;7.97;;
10715;SDS011;5409;42.620;23.316;2023-05-07T04:26:45;10.95;;;8.63;;
10715;SDS011;5409;42.620;23.316;2023-05-07T04:29:12;12.25;;;9.25;;
10715;SDS011;5409;42.620;23.316;2023-05-07T04:31:40;13.57;;;9.52;;
10715;SDS011;5409;42.620;23.316;2023-05-07T04:34:09;11.95;;;8.98;;
10715;SDS011;5409;42.620;23.316;2023-05-07T04:36:36;11.30;;;9.70;;
10715;SDS011;5409;42.620;23.316;2023-05-07T04:39:03;9.98;;;8.52;;
10715;SDS011;5409;42.620;23.316;2023-05-07T04:41:30;11.40;;;8.77;;
10715;SDS011;5409;42.620;23.316;2023-05-07T04:43:57;13.23;;;8.52;;
10715;SDS011;5409;42.620;23.316;2023-05-07T04:46:24;12.93;;;8.63;;
10715;SDS011;5409;42.620;23.316;2023-05-07T04:48:52;16.00;;;8.13;;
10715;SDS011;5409;42.620;23.316;2023-05-07T04:51:19;10.27;;;8.07;;
10715;SDS011;5409;42.620;23.316;2023-05-07T04:53:45;12.30;;;8.10;;
10715;SDS011;5409;42.620;23.316;2023-05-07T04:56:12;12.18;;;8.30;;
10715;SDS011;5409;42.620;23.316;2023-05-07T04:58:39;9.18;;;8.20;;
10715;SDS011;5409;42.620;23.316;2023-05-07T05:01:05;10.77;;;8.27;;
10715;SDS011;5409;42.620;23.316;2023-05-07T05:03:32;9.70;;;8.50;;
10715;SDS011;5409;42.620;23.316;2023-05-07T05:06:00;13.60;;;9.02;;
10715;SDS011;5409;42.620;23.316;2023-05-07T05:08:27;11.13;;;8.57;;
10715;SDS011;5409;42.620;23.316;2023-05-07T05:10:55;10.18;;;8.80;;
10715;SDS011;5409;42.620;23.316;2023-05-07T05:13:22;12.82;;;8.75;;
10715;SDS011;5409;42.620;23.316;2023-05-07T05:15:49;9.95;;;8.05;;
10715;SDS011;5409;42.620;23.316;2023-05-07T05:18:16;12.40;;;8.93;;
10715;SDS011;5409;42.620;23.316;2023-05-07T05:20:42;10.10;;;8.02;;
10715;SDS011;5409;42.620;23.316;2023-05-07T05:23:11;10.35;;;8.63;;
10715;SDS011;5409;42.620;23.316;2023-05-07T05:25:37;10.68;;;8.60;;
10715;SDS011;5409;42.620;23.316;2023-05-07T05:28:05;9.93;;;7.78;;
10715;SDS011;5409;42.620;23.316;2023-05-07T05:30:32;10.07;;;8.93;;
10715;SDS011;5409;42.620;23.316;2023-05-07T05:32:59;12.02;;;8.18;;
10715;SDS011;5409;42.620;23.316;2023-05-07T05:35:25;9.25;;;7.95;;
10715;SDS011;5409;42.620;23.316;2023-05-07T05:37:52;14.65;;;8.65;;
10715;SDS011;5409;42.620;23.316;2023-05-07T05:40:20;11.07;;;7.68;;
10715;SDS011;5409;42.620;23.316;2023-05-07T05:42:47;9.80;;;8.70;;
10715;SDS011;5409;42.620;23.316;2023-05-07T05:45:14;11.32;;;8.13;;
10715;SDS011;5409;42.620;23.316;2023-05-07T05:47:40;9.50;;;7.60;;
10715;SDS011;5409;42.620;23.316;2023-05-07T05:50:07;14.18;;;7.75;;
10715;SDS011;5409;42.620;23.316;2023-05-07T05:52:34;10.23;;;8.07;;
10715;SDS011;5409;42.620;23.316;2023-05-07T05:55:01;9.13;;;8.18;;
10715;SDS011;5409;42.620;23.316;2023-05-07T05:57:29;9.63;;;7.55;;
10715;SDS011;5409;42.620;23.316;2023-05-07T05:59:56;10.23;;;7.65;;
10715;SDS011;5409;42.620;23.316;2023-05-07T06:02:23;10.48;;;7.70;;
10715;SDS011;5409;42.620;23.316;2023-05-07T06:04:50;11.00;;;7.43;;
10715;SDS011;5409;42.620;23.316;2023-05-07T06:07:17;9.90;;;7.00;;
10715;SDS011;5409;42.620;23.316;2023-05-07T06:09:44;15.73;;;7.80;;
10715;SDS011;5409;42.620;23.316;2023-05-07T06:12:11;11.00;;;7.40;;
10715;SDS011;5409;42.620;23.316;2023-05-07T06:14:39;7.85;;;7.03;;
10715;SDS011;5409;42.620;23.316;2023-05-07T06:17:06;10.00;;;7.22;;
10715;SDS011;5409;42.620;23.316;2023-05-07T06:19:33;10.77;;;7.53;;
10715;SDS011;5409;42.620;23.316;2023-05-07T06:22:00;11.52;;;7.28;;
10715;SDS011;5409;42.620;23.316;2023-05-07T06:24:27;8.55;;;6.75;;
10715;SDS011;5409;42.620;23.316;2023-05-07T06:26:54;10.80;;;7.25;;
10715;SDS011;5409;42.620;23.316;2023-05-07T06:29:23;7.53;;;6.38;;
10715;SDS011;5409;42.620;23.316;2023-05-07T06:31:52;7.25;;;6.53;;
10715;SDS011;5409;42.620;23.316;2023-05-07T06:34:19;8.50;;;6.22;;
10715;SDS011;5409;42.620;23.316;2023-05-07T06:36:45;9.70;;;6.57;;
10715;SDS011;5409;42.620;23.316;2023-05-07T06:39:12;7.80;;;6.00;;
10715;SDS011;5409;42.620;23.316;2023-05-07T06:41:39;8.85;;;6.43;;
10715;SDS011;5409;42.620;23.316;2023-05-07T06:44:07;7.45;;;5.80;;
10715;SDS011;5409;42.620;23.316;2023-05-07T06:46:33;7.03;;;6.32;;
10715;SDS011;5409;42.620;23.316;2023-05-07T06:49:01;9.63;;;6.00;;
10715;SDS011;5409;42.620;23.316;2023-05-07T06:51:28;7.15;;;5.43;;
10715;SDS011;5409;42.620;23.316;2023-05-07T06:53:55;7.78;;;6.10;;
10715;SDS011;5409;42.620;23.316;2023-05-07T06:56:22;6.50;;;5.80;;
10715;SDS011;5409;42.620;23.316;2023-05-07T06:58:49;6.45;;;5.65;;
10715;SDS011;5409;42.620;23.316;2023-05-07T07:01:16;6.10;;;5.57;;
10715;SDS011;5409;42.620;23.316;2023-05-07T07:03:43;6.55;;;4.90;;
10715;SDS011;5409;42.620;23.316;2023-05-07T07:06:11;5.60;;;5.10;;
10715;SDS011;5409;42.620;23.316;2023-05-07T07:08:37;9.55;;;5.95;;
10715;SDS011;5409;42.620;23.316;2023-05-07T07:11:04;9.45;;;5.18;;
10715;SDS011;5409;42.620;23.316;2023-05-07T07:13:31;10.10;;;5.57;;
10715;SDS011;5409;42.620;23.316;2023-05-07T07:15:58;6.97;;;5.50;;
10715;SDS011;5409;42.620;23.316;2023-05-07T07:18:25;6.15;;;5.15;;
10715;SDS011;5409;42.620;23.316;2023-05-07T07:20:52;6.05;;;5.15;;
10715;SDS011;5409;42.620;23.316;2023-05-07T07:23:20;6.95;;;4.80;;
10715;SDS011;5409;42.620;23.316;2023-05-07T07:25:47;6.45;;;5.22;;
10715;SDS011;5409;42.620;23.316;2023-05-07T07:28:14;6.38;;;5.65;;
10715;SDS011;5409;42.620;23.316;2023-05-07T07:30:41;7.05;;;5.15;;
10715;SDS011;5409;42.620;23.316;2023-05-07T07:33:08;5.10;;;4.60;;
10715;SDS011;5409;42.620;23.316;2023-05-07T07:35:35;11.30;;;4.93;;
10715;SDS011;5409;42.620;23.316;2023-05-07T07:38:01;7.45;;;4.57;;
10715;SDS011;5409;42.620;23.316;2023-05-07T07:40:29;8.45;;;5.35;;
10715;SDS011;5409;42.620;23.316;2023-05-07T07:42:56;6.38;;;4.80;;
10715;SDS011;5409;42.620;23.316;2023-05-07T07:45:23;5.35;;;4.55;;
10715;SDS011;5409;42.620;23.316;2023-05-07T07:47:50;6.65;;;4.80;;
10715;SDS011;5409;42.620;23.316;2023-05-07T07:50:17;5.65;;;4.57;;
10715;SDS011;5409;42.620;23.316;2023-05-07T07:52:44;7.57;;;4.60;;
10715;SDS011;5409;42.620;23.316;2023-05-07T07:55:11;6.78;;;4.40;;
10715;SDS011;5409;42.620;23.316;2023-05-07T07:57:39;7.20;;;4.22;;
10715;SDS011;5409;42.620;23.316;2023-05-07T08:00:06;6.72;;;4.47;;
10715;SDS011;5409;42.620;23.316;2023-05-07T08:02:34;6.50;;;4.47;;
10715;SDS011;5409;42.620;23.316;2023-05-07T08:05:01;6.20;;;4.15;;
10715;SDS011;5409;42.620;23.316;2023-05-07T08:07:27;6.80;;;5.00;;
10715;SDS011;5409;42.620;23.316;2023-05-07T08:09:55;7.30;;;5.30;;
10715;SDS011;5409;42.620;23.316;2023-05-07T08:12:22;7.07;;;5.13;;
10715;SDS011;5409;42.620;23.316;2023-05-07T08:14:50;8.23;;;5.30;;
10715;SDS011;5409;42.620;23.316;2023-05-07T08:17:17;6.82;;;4.60;;
10715;SDS011;5409;42.620;23.316;2023-05-07T08:19:43;8.95;;;4.82;;
10715;SDS011;5409;42.620;23.316;2023-05-07T08:22:10;5.28;;;4.68;;
10715;SDS011;5409;42.620;23.316;2023-05-07T08:24:37;5.28;;;4.65;;
10715;SDS011;5409;42.620;23.316;2023-05-07T08:27:04;5.40;;;4.82;;
10715;SDS011;5409;42.620;23.316;2023-05-07T08:29:31;5.50;;;4.65;;
10715;SDS011;5409;42.620;23.316;2023-05-07T08:31:59;7.00;;;5.25;;
10715;SDS011;5409;42.620;23.316;2023-05-07T08:34:25;5.47;;;4.75;;
10715;SDS011;5409;42.620;23.316;2023-05-07T08:36:52;5.82;;;4.35;;
10715;SDS011;5409;42.620;23.316;2023-05-07T08:39:19;5.50;;;4.65;;
10715;SDS011;5409;42.620;23.316;2023-05-07T08:41:46;6.40;;;5.03;;
10715;SDS011;5409;42.620;23.316;2023-05-07T08:44:14;7.50;;;4.93;;
10715;SDS011;5409;42.620;23.316;2023-05-07T08:46:46;4.75;;;4.15;;
10715;SDS011;5409;42.620;23.316;2023-05-07T08:49:16;5.75;;;3.78;;
10715;SDS011;5409;42.620;23.316;2023-05-07T08:51:43;5.90;;;3.85;;
10715;SDS011;5409;42.620;23.316;2023-05-07T08:54:10;7.22;;;3.75;;
10715;SDS011;5409;42.620;23.316;2023-05-07T08:56:37;4.60;;;3.80;;
10715;SDS011;5409;42.620;23.316;2023-05-07T08:59:05;7.75;;;4.30;;
10715;SDS011;5409;42.620;23.316;2023-05-07T09:01:32;4.93;;;3.88;;
10715;SDS011;5409;42.620;23.316;2023-05-07T09:04:00;4.53;;;4.03;;
10715;SDS011;5409;42.620;23.316;2023-05-07T09:06:29;5.88;;;4.28;;
10715;SDS011;5409;42.620;23.316;2023-05-07T09:08:56;5.40;;;4.78;;
10715;SDS011;5409;42.620;23.316;2023-05-07T09:11:23;6.70;;;5.18;;
10715;SDS011;5409;42.620;23.316;2023-05-07T09:13:52;5.55;;;4.93;;
10715;SDS011;5409;42.620;23.316;2023-05-07T09:16:20;6.10;;;4.93;;
10715;SDS011;5409;42.620;23.316;2023-05-07T09:18:48;7.57;;;5.32;;
10715;SDS011;5409;42.620;23.316;2023-05-07T09:21:17;7.35;;;5.55;;
10715;SDS011;5409;42.620;23.316;2023-05-07T09:23:46;6.82;;;5.13;;
10715;SDS011;5409;42.620;23.316;2023-05-07T09:26:14;8.38;;;5.15;;
10715;SDS011;5409;42.620;23.316;2023-05-07T09:28:41;6.55;;;4.78;;
10715;SDS011;5409;42.620;23.316;2023-05-07T09:31:08;5.07;;;4.57;;
10715;SDS011;5409;42.620;23.316;2023-05-07T09:33:35;8.25;;;5.22;;
10715;SDS011;5409;42.620;23.316;2023-05-07T09:36:03;11.82;;;4.75;;
10715;SDS011;5409;42.620;23.316;2023-05-07T09:38:30;7.30;;;5.15;;
10715;SDS011;5409;42.620;23.316;2023-05-07T09:41:05;6.13;;;4.90;;
10715;SDS011;5409;42.620;23.316;2023-05-07T09:43:33;7.18;;;4.93;;
10715;SDS011;5409;42.620;23.316;2023-05-07T09:46:02;5.50;;;4.85;;
10715;SDS011;5409;42.620;23.316;2023-05-07T09:48:29;5.38;;;4.88;;
10715;SDS011;5409;42.620;23.316;2023-05-07T09:50:58;5.20;;;4.68;;
10715;SDS011;5409;42.620;23.316;2023-05-07T09:53:29;6.78;;;4.43;;
10715;SDS011;5409;42.620;23.316;2023-05-07T09:55:57;7.97;;;5.00;;
10715;SDS011;5409;42.620;23.316;2023-05-07T09:58:26;5.35;;;4.38;;
10715;SDS011;5409;42.620;23.316;2023-05-07T10:00:54;7.03;;;5.03;;
10715;SDS011;5409;42.620;23.316;2023-05-07T10:03:23;7.43;;;5.18;;
10715;SDS011;5409;42.620;23.316;2023-05-07T10:05:53;7.07;;;5.70;;
10715;SDS011;5409;42.620;23.316;2023-05-07T10:08:20;7.35;;;5.50;;
10715;SDS011;5409;42.620;23.316;2023-05-07T10:10:48;7.15;;;5.50;;
10715;SDS011;5409;42.620;23.316;2023-05-07T10:13:16;5.97;;;5.30;;
10715;SDS011;5409;42.620;23.316;2023-05-07T10:15:46;6.22;;;4.90;;
10715;SDS011;5409;42.620;23.316;2023-05-07T10:18:14;7.32;;;5.00;;
10715;SDS011;5409;42.620;23.316;2023-05-07T10:20:41;8.05;;;4.80;;
10715;SDS011;5409;42.620;23.316;2023-05-07T10:23:12;7.82;;;5.00;;
10715;SDS011;5409;42.620;23.316;2023-05-07T10:25:44;12.13;;;5.45;;
10715;SDS011;5409;42.620;23.316;2023-05-07T10:28:11;5.68;;;4.53;;
10715;SDS011;5409;42.620;23.316;2023-05-07T10:30:47;8.85;;;4.88;;
10715;SDS011;5409;42.620;23.316;2023-05-07T10:33:21;5.28;;;4.22;;
10715;SDS011;5409;42.620;23.316;2023-05-07T10:35:52;6.60;;;4.85;;
10715;SDS011;5409;42.620;23.316;2023-05-07T10:38:24;4.85;;;4.35;;
10715;SDS011;5409;42.620;23.316;2023-05-07T10:40:51;6.35;;;4.35;;
10715;SDS011;5409;42.620;23.316;2023-05-07T10:43:18;5.68;;;4.78;;
10715;SDS011;5409;42.620;23.316;2023-05-07T10:45:51;5.55;;;5.03;;
10715;SDS011;5409;42.620;23.316;2023-05-07T10:48:44;6.07;;;4.15;;
10715;SDS011;5409;42.620;23.316;2023-05-07T10:51:37;5.70;;;3.85;;
10715;SDS011;5409;42.620;23.316;2023-05-07T10:56:52;6.80;;;4.18;;
10715;SDS011;5409;42.620;23.316;2023-05-07T10:59:34;5.55;;;3.75;;
10715;SDS011;5409;42.620;23.316;2023-05-07T11:02:08;5.93;;;3.70;;
10715;SDS011;5409;42.620;23.316;2023-05-07T11:04:36;5.13;;;4.20;;
10715;SDS011;5409;42.620;23.316;2023-05-07T11:09:59;4.63;;;3.95;;
10715;SDS011;5409;42.620;23.316;2023-05-07T11:15:33;5.72;;;3.80;;
10715;SDS011;5409;42.620;23.316;2023-05-07T11:18:05;6.68;;;4.00;;
10715;SDS011;5409;42.620;23.316;2023-05-07T11:26:44;4.38;;;3.97;;
10715;SDS011;5409;42.620;23.316;2023-05-07T11:29:12;4.40;;;3.72;;
10715;SDS011;5409;42.620;23.316;2023-05-07T11:31:41;7.45;;;3.70;;
10715;SDS011;5409;42.620;23.316;2023-05-07T11:34:09;6.32;;;3.42;;
10715;SDS011;5409;42.620;23.316;2023-05-07T11:36:41;4.10;;;3.20;;
10715;SDS011;5409;42.620;23.316;2023-05-07T11:39:28;6.32;;;3.97;;
10715;SDS011;5409;42.620;23.316;2023-05-07T11:41:56;4.22;;;3.83;;
10715;SDS011;5409;42.620;23.316;2023-05-07T11:44:23;5.47;;;3.55;;
10715;SDS011;5409;42.620;23.316;2023-05-07T11:46:50;4.80;;;3.45;;
10715;SDS011;5409;42.620;23.316;2023-05-07T11:49:18;8.02;;;3.33;;
10715;SDS011;5409;42.620;23.316;2023-05-07T11:51:45;5.95;;;3.35;;
10715;SDS011;5409;42.620;23.316;2023-05-07T11:54:14;8.02;;;3.95;;
10715;SDS011;5409;42.620;23.316;2023-05-07T11:56:43;7.78;;;3.70;;
10715;SDS011;5409;42.620;23.316;2023-05-07T11:59:12;6.95;;;3.90;;
10715;SDS011;5409;42.620;23.316;2023-05-07T12:01:45;6.05;;;3.38;;
10715;SDS011;5409;42.620;23.316;2023-05-07T12:04:13;6.09;;;3.30;;
10715;SDS011;5409;42.620;23.316;2023-05-07T12:06:46;4.43;;;3.35;;
10715;SDS011;5409;42.620;23.316;2023-05-07T12:09:13;6.88;;;3.05;;
10715;SDS011;5409;42.620;23.316;2023-05-07T12:11:40;5.07;;;3.25;;
10715;SDS011;5409;42.620;23.316;2023-05-07T12:14:12;3.50;;;3.20;;
10715;SDS011;5409;42.620;23.316;2023-05-07T12:16:40;4.05;;;3.20;;
10715;SDS011;5409;42.620;23.316;2023-05-07T12:19:08;6.40;;;3.50;;
10715;SDS011;5409;42.620;23.316;2023-05-07T12:21:37;6.43;;;3.42;;
10715;SDS011;5409;42.620;23.316;2023-05-07T12:24:06;5.57;;;3.05;;
10715;SDS011;5409;42.620;23.316;2023-05-07T12:26:37;4.93;;;3.35;;
10715;SDS011;5409;42.620;23.316;2023-05-07T12:29:04;5.68;;;2.97;;
10715;SDS011;5409;42.620;23.316;2023-05-07T12:31:30;4.90;;;3.25;;
10715;SDS011;5409;42.620;23.316;2023-05-07T12:33:57;3.35;;;2.83;;
10715;SDS011;5409;42.620;23.316;2023-05-07T12:36:24;5.38;;;2.80;;
10715;SDS011;5409;42.620;23.316;2023-05-07T12:38:51;3.20;;;2.85;;
10715;SDS011;5409;42.620;23.316;2023-05-07T12:41:19;3.15;;;2.80;;
10715;SDS011;5409;42.620;23.316;2023-05-07T12:43:50;3.35;;;2.70;;
10715;SDS011;5409;42.620;23.316;2023-05-07T12:46:22;3.95;;;2.83;;
10715;SDS011;5409;42.620;23.316;2023-05-07T12:48:49;2.75;;;2.53;;
10715;SDS011;5409;42.620;23.316;2023-05-07T12:51:16;4.28;;;3.03;;
10715;SDS011;5409;42.620;23.316;2023-05-07T12:53:43;3.75;;;3.20;;
10715;SDS011;5409;42.620;23.316;2023-05-07T12:56:10;3.17;;;2.88;;
10715;SDS011;5409;42.620;23.316;2023-05-07T12:58:38;3.92;;;3.47;;
10715;SDS011;5409;42.620;23.316;2023-05-07T13:01:06;3.80;;;2.90;;
10715;SDS011;5409;42.620;23.316;2023-05-07T13:03:34;3.63;;;2.90;;
10715;SDS011;5409;42.620;23.316;2023-05-07T13:06:03;3.15;;;2.85;;
10715;SDS011;5409;42.620;23.316;2023-05-07T13:08:32;4.43;;;2.90;;
10715;SDS011;5409;42.620;23.316;2023-05-07T13:11:00;4.50;;;3.10;;
10715;SDS011;5409;42.620;23.316;2023-05-07T13:13:28;3.78;;;2.95;;
10715;SDS011;5409;42.620;23.316;2023-05-07T13:15:57;4.70;;;3.28;;
10715;SDS011;5409;42.620;23.316;2023-05-07T13:18:24;4.85;;;4.38;;
10715;SDS011;5409;42.620;23.316;2023-05-07T13:20:51;4.28;;;3.25;;
10715;SDS011;5409;42.620;23.316;2023-05-07T13:23:18;4.60;;;3.33;;
10715;SDS011;5409;42.620;23.316;2023-05-07T13:25:45;5.65;;;2.80;;
10715;SDS011;5409;42.620;23.316;2023-05-07T13:28:12;3.83;;;2.75;;
10715;SDS011;5409;42.620;23.316;2023-05-07T13:30:38;5.78;;;3.20;;
10715;SDS011;5409;42.620;23.316;2023-05-07T13:33:08;3.92;;;3.42;;
10715;SDS011;5409;42.620;23.316;2023-05-07T13:35:35;8.95;;;4.03;;
10715;SDS011;5409;42.620;23.316;2023-05-07T13:38:02;5.90;;;4.63;;
10715;SDS011;5409;42.620;23.316;2023-05-07T13:40:29;6.57;;;5.47;;
10715;SDS011;5409;42.620;23.316;2023-05-07T13:42:56;5.50;;;3.30;;
10715;SDS011;5409;42.620;23.316;2023-05-07T13:45:25;3.90;;;3.50;;
10715;SDS011;5409;42.620;23.316;2023-05-07T13:47:54;3.50;;;3.13;;
10715;SDS011;5409;42.620;23.316;2023-05-07T13:50:23;5.78;;;3.70;;
10715;SDS011;5409;42.620;23.316;2023-05-07T13:52:51;3.63;;;3.28;;
10715;SDS011;5409;42.620;23.316;2023-05-07T13:55:18;4.45;;;3.45;;
10715;SDS011;5409;42.620;23.316;2023-05-07T13:57:45;8.18;;;3.70;;
10715;SDS011;5409;42.620;23.316;2023-05-07T14:00:13;2.97;;;2.70;;
10715;SDS011;5409;42.620;23.316;2023-05-07T14:02:41;4.50;;;3.10;;
10715;SDS011;5409;42.620;23.316;2023-05-07T14:05:08;5.45;;;2.80;;
10715;SDS011;5409;42.620;23.316;2023-05-07T14:07:36;2.95;;;2.70;;
10715;SDS011;5409;42.620;23.316;2023-05-07T14:10:03;6.10;;;3.00;;
10715;SDS011;5409;42.620;23.316;2023-05-07T14:12:31;3.08;;;2.78;;
10715;SDS011;5409;42.620;23.316;2023-05-07T14:14:58;5.13;;;3.28;;
10715;SDS011;5409;42.620;23.316;2023-05-07T14:17:24;5.13;;;2.85;;
10715;SDS011;5409;42.620;23.316;2023-05-07T14:19:52;4.18;;;3.38;;
10715;SDS011;5409;42.620;23.316;2023-05-07T14:22:20;3.50;;;3.20;;
10715;SDS011;5409;42.620;23.316;2023-05-07T14:24:48;4.38;;;3.13;;
10715;SDS011;5409;42.620;23.316;2023-05-07T14:27:15;5.63;;;3.80;;
10715;SDS011;5409;42.620;23.316;2023-05-07T14:29:42;3.97;;;2.95;;
10715;SDS011;5409;42.620;23.316;2023-05-07T14:32:10;3.88;;;3.40;;
10715;SDS011;5409;42.620;23.316;2023-05-07T14:34:37;4.05;;;3.03;;
10715;SDS011;5409;42.620;23.316;2023-05-07T14:37:03;4.38;;;3.17;;
10715;SDS011;5409;42.620;23.316;2023-05-07T14:39:30;3.10;;;2.80;;
10715;SDS011;5409;42.620;23.316;2023-05-07T14:41:58;3.47;;;2.58;;
10715;SDS011;5409;42.620;23.316;2023-05-07T14:44:25;4.70;;;2.67;;
10715;SDS011;5409;42.620;23.316;2023-05-07T14:46:52;2.95;;;2.45;;
10715;SDS011;5409;42.620;23.316;2023-05-07T14:49:18;3.15;;;2.40;;
10715;SDS011;5409;42.620;23.316;2023-05-07T14:51:45;2.70;;;2.20;;
10715;SDS011;5409;42.620;23.316;2023-05-07T14:54:13;3.83;;;2.60;;
10715;SDS011;5409;42.620;23.316;2023-05-07T14:56:40;3.42;;;2.55;;
10715;SDS011;5409;42.620;23.316;2023-05-07T14:59:09;2.50;;;2.30;;
10715;SDS011;5409;42.620;23.316;2023-05-07T15:01:36;2.47;;;2.25;;
10715;SDS011;5409;42.620;23.316;2023-05-07T15:04:05;2.58;;;2.38;;